Argonne, South Dakota
Current Conditions -  °F | °C
As of 5:35 PM on Saturday 22 Nov 2014 (Local Time) from KMDS Reporting Station
Clear Clear  
Wind Chill: 31°   Ceiling: Unl
Heat Index: 37°   Visibility: 10mi
Dew Point: 37°   Wind: 9mph
Humidity: 100%   Direction: 160°SSE
Pressure: 29.45"   Gusts: NA
Location:  44.0529°N, 97.5161°W
Report Text: KMDS 222335Z AUTO 16008KT 10SM CLR 03/03 A2945 RMK AO2
Loading
Personal Weather Stations






























Interactive Weather Map New forecast layout! Learn more

10-Day Weather Forecast

Advertisements
Track Severe Weather on mobile